Time,TemperatureF,DewpointF,PressureIn,WindDirection,WindDirectionDegrees,WindSpeedMPH,WindSpeedGustMPH,Humidity,HourlyPrecipIn,Conditions,Clouds,dailyrainin,SoftwareType,DateUTC
2013-02-11 00:00:00,40.1,38.5,30.11,East,85,0.0,0.0,94,0.00,,,0.12,Wunderground v.1.15,2013-02-11 05:00:00,
2013-02-11 00:10:00,39.9,38.3,30.11,East,85,0.0,0.0,94,0.00,,,0.00,Wunderground v.1.15,2013-02-11 05:10:00,
2013-02-11 00:15:00,39.8,38.2,30.11,East,85,0.0,0.0,94,0.00,,,0.00,Wunderground v.1.15,2013-02-11 05:15:00,
2013-02-11 00:25:00,39.8,38.2,30.11,East,85,0.0,0.0,94,0.00,,,0.00,Wunderground v.1.15,2013-02-11 05:25:00,
2013-02-11 00:30:00,40.0,38.4,30.11,East,85,0.0,0.0,94,0.00,,,0.00,Wunderground v.1.15,2013-02-11 05:30:00,
2013-02-11 00:35:00,39.9,38.3,30.11,East,85,0.0,0.0,94,0.00,,,0.00,Wunderground v.1.15,2013-02-11 05:35:00,
2013-02-11 00:40:00,39.9,38.3,30.11,East,85,0.0,0.0,94,0.00,,,0.00,Wunderground v.1.15,2013-02-11 05:40:00,
2013-02-11 00:45:00,39.8,38.2,30.11,East,85,0.0,0.0,94,0.00,,,0.00,Wunderground v.1.15,2013-02-11 05:45:00,
2013-02-11 00:55:00,39.8,38.2,30.10,East,85,0.0,0.0,94,0.00,,,0.00,Wunderground v.1.15,2013-02-11 05:55:00,
2013-02-11 01:00:00,39.8,38.2,30.11,East,85,0.0,0.0,94,0.00,,,0.00,Wunderground v.1.15,2013-02-11 06:00:00,
2013-02-11 01:10:00,39.8,38.2,30.10,East,85,0.0,0.0,94,0.00,,,0.00,Wunderground v.1.15,2013-02-11 06:10:00,
2013-02-11 01:20:00,39.8,38.2,30.10,East,85,0.0,1.0,94,0.00,,,0.00,Wunderground v.1.15,2013-02-11 06:20:00,
2013-02-11 01:25:00,40.0,38.4,30.10,East,85,0.0,1.0,94,0.00,,,0.00,Wunderground v.1.15,2013-02-11 06:25:00,
2013-02-11 01:30:00,40.1,38.5,30.09,East,85,0.0,0.0,94,0.00,,,0.00,Wunderground v.1.15,2013-02-11 06:30:00,
2013-02-11 01:40:00,40.0,38.4,30.10,East,85,0.0,0.0,94,0.00,,,0.00,Wunderground v.1.15,2013-02-11 06:40:00,
2013-02-11 01:45:00,40.1,38.5,30.10,East,85,0.0,0.0,94,0.00,,,0.00,Wunderground v.1.15,2013-02-11 06:45:00,
2013-02-11 01:55:00,40.3,38.7,30.09,East,85,0.0,0.0,94,0.00,,,0.00,Wunderground v.1.15,2013-02-11 06:55:00,
2013-02-11 02:00:00,40.3,39.0,30.09,East,85,0.0,0.0,95,0.00,,,0.00,Wunderground v.1.15,2013-02-11 07:00:00,
2013-02-11 02:10:00,40.4,38.8,30.09,East,85,0.0,0.0,94,0.00,,,0.00,Wunderground v.1.15,2013-02-11 07:10:00,
2013-02-11 02:15:00,40.5,38.9,30.09,East,85,0.0,0.0,94,0.00,,,0.00,Wunderground v.1.15,2013-02-11 07:15:00,
2013-02-11 02:25:00,40.7,39.1,30.08,East,85,0.0,0.0,94,0.00,,,0.00,Wunderground v.1.15,2013-02-11 07:25:00,
2013-02-11 02:30:00,40.7,39.4,30.08,East,85,0.0,0.0,95,0.00,,,0.00,Wunderground v.1.15,2013-02-11 07:30:00,
2013-02-11 02:35:00,40.8,39.5,30.07,East,85,0.0,0.0,95,0.00,,,0.00,Wunderground v.1.15,2013-02-11 07:35:00,
2013-02-11 02:40:00,40.9,39.6,30.07,East,85,0.0,0.0,95,0.00,,,0.00,Wunderground v.1.15,2013-02-11 07:40:00,
2013-02-11 02:45:00,41.0,39.7,30.07,East,85,0.0,0.0,95,0.00,,,0.00,Wunderground v.1.15,2013-02-11 07:45:00,
2013-02-11 02:55:00,41.2,39.9,30.07,East,85,0.0,0.0,95,0.00,,,0.00,Wunderground v.1.15,2013-02-11 07:55:00,
2013-02-11 03:00:00,41.3,40.0,30.07,East,85,0.0,0.0,95,0.00,,,0.00,Wunderground v.1.15,2013-02-11 08:00:00,
2013-02-11 03:10:00,41.4,40.1,30.07,East,85,0.0,0.0,95,0.00,,,0.00,Wunderground v.1.15,2013-02-11 08:10:00,
2013-02-11 03:20:00,41.7,40.4,30.07,East,85,0.0,0.0,95,0.00,,,0.00,Wunderground v.1.15,2013-02-11 08:20:00,
2013-02-11 03:25:00,41.8,40.5,30.07,East,85,0.0,0.0,95,0.00,,,0.00,Wunderground v.1.15,2013-02-11 08:25:00,
2013-02-11 03:30:00,41.8,40.5,30.07,East,85,0.0,0.0,95,0.00,,,0.00,Wunderground v.1.15,2013-02-11 08:30:00,
2013-02-11 03:40:00,41.9,40.6,30.05,East,85,0.0,0.0,95,0.00,,,0.00,Wunderground v.1.15,2013-02-11 08:40:00,
2013-02-11 03:50:00,42.2,40.9,30.05,East,85,0.0,1.0,95,0.00,,,0.01,Wunderground v.1.15,2013-02-11 08:50:00,
2013-02-11 03:55:00,42.4,41.1,30.05,East,85,0.0,1.0,95,0.00,,,0.01,Wunderground v.1.15,2013-02-11 08:55:00,
2013-02-11 04:00:00,42.5,41.2,30.05,East,85,0.0,0.0,95,0.00,,,0.01,Wunderground v.1.15,2013-02-11 09:00:00,
2013-02-11 04:10:00,42.6,41.3,30.05,East,85,0.0,0.0,95,0.00,,,0.01,Wunderground v.1.15,2013-02-11 09:10:00,
2013-02-11 04:15:00,42.9,41.6,30.05,East,85,0.0,0.0,95,0.00,,,0.01,Wunderground v.1.15,2013-02-11 09:15:00,
2013-02-11 04:20:00,42.8,41.5,30.04,East,85,0.0,0.0,95,0.00,,,0.01,Wunderground v.1.15,2013-02-11 09:20:00,
2013-02-11 04:25:00,42.6,41.3,30.04,East,85,0.0,0.0,95,0.00,,,0.01,Wunderground v.1.15,2013-02-11 09:25:00,
2013-02-11 04:30:00,42.5,41.2,30.04,East,85,0.0,0.0,95,0.00,,,0.01,Wunderground v.1.15,2013-02-11 09:30:00,
2013-02-11 04:40:00,42.5,41.2,30.04,East,85,0.0,0.0,95,0.00,,,0.01,Wunderground v.1.15,2013-02-11 09:40:00,
2013-02-11 04:45:00,42.5,41.2,30.05,East,85,0.0,0.0,95,0.00,,,0.01,Wunderground v.1.15,2013-02-11 09:45:00,
2013-02-11 04:55:00,42.5,41.2,30.05,East,85,0.0,0.0,95,0.00,,,0.01,Wunderground v.1.15,2013-02-11 09:55:00,
2013-02-11 05:00:00,42.9,41.6,30.06,East,85,1.0,1.0,95,0.00,,,0.01,Wunderground v.1.15,2013-02-11 10:00:00,
2013-02-11 05:05:00,43.2,41.9,30.06,East,85,1.0,1.0,95,0.00,,,0.01,Wunderground v.1.15,2013-02-11 10:05:00,
2013-02-11 05:10:00,43.4,42.1,30.06,East,85,0.0,0.0,95,0.00,,,0.02,Wunderground v.1.15,2013-02-11 10:10:00,
2013-02-11 05:20:00,43.5,42.2,30.07,East,85,0.0,0.0,95,0.00,,,0.02,Wunderground v.1.15,2013-02-11 10:20:00,
2013-02-11 05:25:00,43.6,42.3,30.06,East,85,0.0,0.0,95,0.06,,,0.03,Wunderground v.1.15,2013-02-11 10:25:00,
2013-02-11 05:30:00,43.2,41.9,30.05,East,85,0.0,0.0,95,0.06,,,0.03,Wunderground v.1.15,2013-02-11 10:30:00,
2013-02-11 05:40:00,42.8,41.5,30.05,East,85,0.0,0.0,95,0.00,,,0.03,Wunderground v.1.15,2013-02-11 10:40:00,
2013-02-11 05:45:00,42.6,41.3,30.05,East,85,0.0,0.0,95,0.00,,,0.03,Wunderground v.1.15,2013-02-11 10:45:00,
2013-02-11 05:50:00,42.5,41.2,30.05,East,85,0.0,0.0,95,0.00,,,0.03,Wunderground v.1.15,2013-02-11 10:50:00,
2013-02-11 05:55:00,42.5,41.2,30.05,East,85,0.0,1.0,95,0.00,,,0.03,Wunderground v.1.15,2013-02-11 10:55:00,
2013-02-11 06:05:00,42.7,41.4,30.05,East,85,0.0,0.0,95,0.00,,,0.03,Wunderground v.1.15,2013-02-11 11:05:00,
2013-02-11 06:10:00,42.8,41.5,30.05,East,85,0.0,0.0,95,0.00,,,0.03,Wunderground v.1.15,2013-02-11 11:10:00,
2013-02-11 06:15:00,42.9,41.6,30.04,East,85,0.0,0.0,95,0.00,,,0.04,Wunderground v.1.15,2013-02-11 11:15:00,
2013-02-11 06:25:00,42.8,41.5,30.04,East,85,0.0,0.0,95,0.07,,,0.05,Wunderground v.1.15,2013-02-11 11:25:00,
2013-02-11 06:30:00,42.8,41.5,30.04,East,85,0.0,0.0,95,0.06,,,0.05,Wunderground v.1.15,2013-02-11 11:30:00,
2013-02-11 06:40:00,42.9,41.6,30.04,East,85,0.0,0.0,95,0.00,,,0.05,Wunderground v.1.15,2013-02-11 11:40:00,
2013-02-11 06:45:00,42.8,41.5,30.03,East,85,0.0,0.0,95,0.00,,,0.05,Wunderground v.1.15,2013-02-11 11:45:00,
2013-02-11 06:50:00,42.8,41.5,30.04,East,85,0.0,0.0,95,0.00,,,0.06,Wunderground v.1.15,2013-02-11 11:50:00,
2013-02-11 06:55:00,42.7,41.4,30.03,East,85,0.0,0.0,95,0.00,,,0.06,Wunderground v.1.15,2013-02-11 11:55:00,
2013-02-11 07:00:00,42.7,41.4,30.04,East,85,0.0,0.0,95,0.00,,,0.06,Wunderground v.1.15,2013-02-11 12:00:00,
2013-02-11 07:10:00,42.7,41.4,30.04,East,85,0.0,0.0,95,0.00,,,0.06,Wunderground v.1.15,2013-02-11 12:10:00,
2013-02-11 07:15:00,42.7,41.4,30.04,East,85,0.0,0.0,95,0.00,,,0.06,Wunderground v.1.15,2013-02-11 12:15:00,
2013-02-11 07:25:00,42.8,41.5,30.05,East,85,0.0,0.0,95,0.00,,,0.06,Wunderground v.1.15,2013-02-11 12:25:00,
2013-02-11 07:30:00,42.8,41.5,30.04,East,85,0.0,0.0,95,0.00,,,0.06,Wunderground v.1.15,2013-02-11 12:30:00,
2013-02-11 07:40:00,42.9,41.6,30.04,East,85,0.0,0.0,95,0.00,,,0.06,Wunderground v.1.15,2013-02-11 12:40:00,
2013-02-11 07:45:00,42.9,41.6,30.04,East,85,0.0,0.0,95,0.00,,,0.06,Wunderground v.1.15,2013-02-11 12:45:00,
2013-02-11 07:55:00,43.0,41.7,30.05,East,85,0.0,0.0,95,0.00,,,0.07,Wunderground v.1.15,2013-02-11 12:55:00,
2013-02-11 08:00:00,43.1,41.8,30.05,East,85,0.0,0.0,95,0.00,,,0.07,Wunderground v.1.15,2013-02-11 13:00:00,
2013-02-11 08:10:00,43.3,42.0,30.04,East,85,0.0,0.0,95,0.06,,,0.09,Wunderground v.1.15,2013-02-11 13:10:00,
2013-02-11 08:20:00,43.4,42.1,30.05,East,85,0.0,0.0,95,0.06,,,0.09,Wunderground v.1.15,2013-02-11 13:20:00,
2013-02-11 08:25:00,43.4,42.1,30.05,East,85,0.0,0.0,95,0.04,,,0.09,Wunderground v.1.15,2013-02-11 13:25:00,
2013-02-11 08:30:00,43.5,42.2,30.05,East,85,0.0,0.0,95,0.00,,,0.09,Wunderground v.1.15,2013-02-11 13:30:00,
2013-02-11 08:35:00,43.6,42.3,30.06,East,85,0.0,0.0,95,0.00,,,0.10,Wunderground v.1.15,2013-02-11 13:35:00,
2013-02-11 08:40:00,43.8,42.5,30.06,East,85,0.0,0.0,95,0.00,,,0.10,Wunderground v.1.15,2013-02-11 13:40:00,
2013-02-11 08:45:00,44.0,42.7,30.06,East,85,0.0,0.0,95,0.00,,,0.10,Wunderground v.1.15,2013-02-11 13:45:00,
2013-02-11 08:55:00,44.1,43.0,30.06,East,85,0.0,0.0,96,0.00,,,0.10,Wunderground v.1.15,2013-02-11 13:55:00,
2013-02-11 09:00:00,44.1,43.0,30.06,East,85,0.0,0.0,96,0.00,,,0.10,Wunderground v.1.15,2013-02-11 14:00:00,
2013-02-11 09:05:00,44.3,43.2,30.06,East,85,0.0,0.0,96,0.00,,,0.10,Wunderground v.1.15,2013-02-11 14:05:00,
2013-02-11 09:10:00,44.4,43.1,30.05,East,85,0.0,0.0,95,0.00,,,0.10,Wunderground v.1.15,2013-02-11 14:10:00,
2013-02-11 09:20:00,44.7,43.4,30.05,East,85,0.0,0.0,95,0.00,,,0.10,Wunderground v.1.15,2013-02-11 14:20:00,
2013-02-11 09:25:00,44.8,43.7,30.05,East,85,0.0,0.0,96,0.00,,,0.10,Wunderground v.1.15,2013-02-11 14:25:00,
2013-02-11 09:35:00,44.8,43.7,30.07,East,85,0.0,0.0,96,0.00,,,0.10,Wunderground v.1.15,2013-02-11 14:35:00,
2013-02-11 09:40:00,44.9,43.8,30.06,East,85,0.0,0.0,96,0.00,,,0.11,Wunderground v.1.15,2013-02-11 14:40:00,
2013-02-11 09:45:00,45.0,43.9,30.06,East,85,0.0,0.0,96,0.00,,,0.11,Wunderground v.1.15,2013-02-11 14:45:00,
2013-02-11 09:55:00,45.3,44.2,30.06,East,85,0.0,0.0,96,0.00,,,0.11,Wunderground v.1.15,2013-02-11 14:55:00,
2013-02-11 10:00:00,45.5,44.4,30.05,East,85,0.0,0.0,96,0.00,,,0.11,Wunderground v.1.15,2013-02-11 15:00:00,
2013-02-11 10:10:00,46.2,45.1,30.05,East,85,0.0,0.0,96,0.00,,,0.11,Wunderground v.1.15,2013-02-11 15:10:00,
2013-02-11 10:15:00,46.7,45.6,30.05,East,85,0.0,0.0,96,0.00,,,0.11,Wunderground v.1.15,2013-02-11 15:15:00,
2013-02-11 10:25:00,47.1,46.0,30.05,East,85,0.0,0.0,96,0.00,,,0.11,Wunderground v.1.15,2013-02-11 15:25:00,
2013-02-11 10:30:00,47.3,46.2,30.05,East,85,0.0,0.0,96,0.00,,,0.11,Wunderground v.1.15,2013-02-11 15:30:00,
2013-02-11 10:40:00,47.5,46.4,30.05,East,85,0.0,0.0,96,0.00,,,0.11,Wunderground v.1.15,2013-02-11 15:40:00,
2013-02-11 10:45:00,47.6,46.5,30.05,East,85,0.0,0.0,96,0.00,,,0.11,Wunderground v.1.15,2013-02-11 15:45:00,
2013-02-11 10:55:00,48.0,46.9,30.05,East,85,0.0,0.0,96,0.00,,,0.11,Wunderground v.1.15,2013-02-11 15:55:00,
2013-02-11 11:05:00,48.5,47.4,30.04,East,85,0.0,1.0,96,0.00,,,0.11,Wunderground v.1.15,2013-02-11 16:05:00,
2013-02-11 11:10:00,48.6,47.5,30.04,East,85,0.0,0.0,96,0.00,,,0.11,Wunderground v.1.15,2013-02-11 16:10:00,
2013-02-11 11:15:00,48.6,47.5,30.05,East,85,0.0,0.0,96,0.00,,,0.11,Wunderground v.1.15,2013-02-11 16:15:00,
2013-02-11 11:25:00,49.2,48.1,30.06,NNW,340,0.0,0.0,96,0.00,,,0.11,Wunderground v.1.15,2013-02-11 16:25:00,
2013-02-11 11:30:00,49.7,48.6,30.06,WNW,300,0.0,2.0,96,0.00,,,0.11,Wunderground v.1.15,2013-02-11 16:30:00,
2013-02-11 11:40:00,50.0,48.9,30.05,NW,306,1.0,1.0,96,0.00,,,0.11,Wunderground v.1.15,2013-02-11 16:40:00,
2013-02-11 11:45:00,50.2,49.1,30.05,NNW,341,0.0,1.0,96,0.00,,,0.11,Wunderground v.1.15,2013-02-11 16:45:00,
2013-02-11 11:50:00,50.3,49.2,30.06,NW,321,1.0,3.0,96,0.00,,,0.11,Wunderground v.1.15,2013-02-11 16:50:00,
2013-02-11 11:55:00,50.4,49.3,30.05,NNW,333,1.0,3.0,96,0.00,,,0.11,Wunderground v.1.15,2013-02-11 16:55:00,
2013-02-11 12:00:00,50.5,49.4,30.05,NNW,327,1.0,1.0,96,0.00,,,0.11,Wunderground v.1.15,2013-02-11 17:00:00,
2013-02-11 12:10:00,50.5,49.4,30.05,NNE,14,1.0,1.0,96,0.00,,,0.11,Wunderground v.1.15,2013-02-11 17:10:00,
2013-02-11 12:20:00,50.5,49.4,30.04,WNW,301,1.0,1.0,96,0.00,,,0.11,Wunderground v.1.15,2013-02-11 17:20:00,
2013-02-11 12:25:00,50.5,49.4,30.04,NW,319,1.0,3.0,96,0.00,,,0.11,Wunderground v.1.15,2013-02-11 17:25:00,
2013-02-11 12:35:00,50.8,49.4,30.04,WNW,288,3.0,4.0,95,0.00,,,0.11,Wunderground v.1.15,2013-02-11 17:35:00,
2013-02-11 12:40:00,51.0,49.6,30.04,NW,324,4.0,4.0,95,0.00,,,0.11,Wunderground v.1.15,2013-02-11 17:40:00,
2013-02-11 12:45:00,51.4,50.0,30.03,NW,306,4.0,6.0,95,0.00,,,0.11,Wunderground v.1.15,2013-02-11 17:45:00,
2013-02-11 12:55:00,51.8,49.8,30.02,NE,43,4.0,8.0,93,0.00,,,0.11,Wunderground v.1.15,2013-02-11 17:55:00,
2013-02-11 13:00:00,51.9,49.9,30.02,NNW,346,4.0,4.0,93,0.00,,,0.11,Wunderground v.1.15,2013-02-11 18:00:00,
2013-02-11 13:10:00,52.1,49.8,30.01,West,272,3.0,6.0,92,0.00,,,0.11,Wunderground v.1.15,2013-02-11 18:10:00,
2013-02-11 13:15:00,52.3,50.0,30.01,WNW,283,3.0,7.0,92,0.00,,,0.11,Wunderground v.1.15,2013-02-11 18:15:00,
2013-02-11 13:25:00,52.8,49.9,30.02,West,277,4.0,4.0,90,0.00,,,0.11,Wunderground v.1.15,2013-02-11 18:25:00,
2013-02-11 13:30:00,52.9,50.0,30.02,NW,325,3.0,3.0,90,0.00,,,0.11,Wunderground v.1.15,2013-02-11 18:30:00,
2013-02-11 13:35:00,53.1,49.9,30.03,WSW,254,3.0,5.0,89,0.00,,,0.11,Wunderground v.1.15,2013-02-11 18:35:00,
2013-02-11 13:40:00,53.2,50.0,30.03,NW,320,3.0,3.0,89,0.00,,,0.11,Wunderground v.1.15,2013-02-11 18:40:00,
2013-02-11 13:45:00,53.2,50.0,30.03,NNW,335,3.0,5.0,89,0.00,,,0.11,Wunderground v.1.15,2013-02-11 18:45:00,
2013-02-11 13:55:00,53.4,50.2,30.03,WNW,286,2.0,4.0,89,0.00,,,0.11,Wunderground v.1.15,2013-02-11 18:55:00,
2013-02-11 14:00:00,53.5,50.0,30.03,NNW,344,2.0,3.0,88,0.00,,,0.11,Wunderground v.1.15,2013-02-11 19:00:00,
2013-02-11 14:10:00,53.5,49.4,30.03,West,277,3.0,4.0,86,0.00,,,0.11,Wunderground v.1.15,2013-02-11 19:10:00,
2013-02-11 14:15:00,53.6,49.5,30.03,NW,319,3.0,4.0,86,0.00,,,0.11,Wunderground v.1.15,2013-02-11 19:15:00,
2013-02-11 14:25:00,53.8,49.7,30.03,NNW,330,2.0,4.0,86,0.00,,,0.11,Wunderground v.1.15,2013-02-11 19:25:00,
2013-02-11 14:30:00,53.8,49.4,30.03,NE,34,2.0,5.0,85,0.00,,,0.11,Wunderground v.1.15,2013-02-11 19:30:00,
2013-02-11 14:40:00,54.0,49.0,30.01,NNW,330,2.0,5.0,83,0.00,,,0.11,Wunderground v.1.15,2013-02-11 19:40:00,
2013-02-11 14:50:00,54.1,49.1,30.01,NNW,336,3.0,5.0,83,0.00,,,0.11,Wunderground v.1.15,2013-02-11 19:50:00,
2013-02-11 14:55:00,54.2,48.5,30.01,WNW,290,2.0,5.0,81,0.00,,,0.11,Wunderground v.1.15,2013-02-11 19:55:00,
2013-02-11 15:00:00,54.2,48.5,30.01,NNW,340,2.0,4.0,81,0.00,,,0.11,Wunderground v.1.15,2013-02-11 20:00:00,
2013-02-11 15:05:00,54.2,48.2,30.01,NW,315,3.0,4.0,80,0.00,,,0.11,Wunderground v.1.15,2013-02-11 20:05:00,
2013-02-11 15:10:00,54.2,47.8,30.00,NW,323,3.0,3.0,79,0.00,,,0.11,Wunderground v.1.15,2013-02-11 20:10:00,
2013-02-11 15:15:00,54.2,47.8,30.00,NW,313,3.0,6.0,79,0.00,,,0.11,Wunderground v.1.15,2013-02-11 20:15:00,
2013-02-11 15:25:00,54.2,47.5,30.01,NW,312,3.0,3.0,78,0.00,,,0.11,Wunderground v.1.15,2013-02-11 20:25:00,
2013-02-11 15:30:00,54.2,47.1,30.01,NNW,331,3.0,3.0,77,0.00,,,0.11,Wunderground v.1.15,2013-02-11 20:30:00,
2013-02-11 15:40:00,54.2,47.5,30.02,WNW,284,3.0,7.0,78,0.00,,,0.11,Wunderground v.1.15,2013-02-11 20:40:00,
2013-02-11 15:45:00,54.1,46.7,30.01,NNW,344,5.0,7.0,76,0.00,,,0.11,Wunderground v.1.15,2013-02-11 20:45:00,
2013-02-11 15:50:00,54.1,46.7,30.01,West,277,6.0,6.0,76,0.00,,,0.11,Wunderground v.1.15,2013-02-11 20:50:00,
2013-02-11 15:55:00,54.0,46.6,30.01,NNW,329,5.0,6.0,76,0.00,,,0.11,Wunderground v.1.15,2013-02-11 20:55:00,
2013-02-11 16:00:00,54.0,46.6,30.01,NW,324,5.0,5.0,76,0.00,,,0.11,Wunderground v.1.15,2013-02-11 21:00:00,
2013-02-11 16:10:00,53.9,46.5,30.01,NW,311,3.0,5.0,76,0.00,,,0.11,Wunderground v.1.15,2013-02-11 21:10:00,
2013-02-11 16:15:00,53.8,46.8,30.02,WNW,302,3.0,5.0,77,0.00,,,0.11,Wunderground v.1.15,2013-02-11 21:15:00,
2013-02-11 16:25:00,53.6,46.6,30.02,North,355,3.0,3.0,77,0.00,,,0.11,Wunderground v.1.15,2013-02-11 21:25:00,
2013-02-11 16:30:00,53.6,46.9,30.01,WNW,286,2.0,2.0,78,0.00,,,0.11,Wunderground v.1.15,2013-02-11 21:30:00,
2013-02-11 16:35:00,53.6,46.6,30.01,NNW,331,2.0,4.0,77,0.00,,,0.11,Wunderground v.1.15,2013-02-11 21:35:00,
2013-02-11 16:40:00,53.5,46.5,30.01,WNW,290,3.0,3.0,77,0.00,,,0.11,Wunderground v.1.15,2013-02-11 21:40:00,
2013-02-11 16:45:00,53.3,46.3,30.02,NW,314,3.0,3.0,77,0.00,,,0.11,Wunderground v.1.15,2013-02-11 21:45:00,
2013-02-11 16:55:00,53.2,45.8,30.02,NNW,331,3.0,6.0,76,0.00,,,0.11,Wunderground v.1.15,2013-02-11 21:55:00,
2013-02-11 17:00:00,53.2,45.8,30.01,WNW,286,4.0,4.0,76,0.00,,,0.11,Wunderground v.1.15,2013-02-11 22:00:00,
2013-02-11 17:10:00,53.0,46.0,30.02,NW,317,3.0,3.0,77,0.00,,,0.11,Wunderground v.1.15,2013-02-11 22:10:00,
2013-02-11 17:20:00,52.5,45.5,30.02,WNW,289,2.0,2.0,77,0.00,,,0.11,Wunderground v.1.15,2013-02-11 22:20:00,
2013-02-11 17:25:00,52.4,45.7,30.02,NW,313,3.0,3.0,78,0.00,,,0.11,Wunderground v.1.15,2013-02-11 22:25:00,
2013-02-11 17:35:00,52.2,45.5,30.02,NW,311,3.0,4.0,78,0.00,,,0.11,Wunderground v.1.15,2013-02-11 22:35:00,
2013-02-11 17:40:00,52.1,45.4,30.02,NW,308,3.0,3.0,78,0.00,,,0.11,Wunderground v.1.15,2013-02-11 22:40:00,
2013-02-11 17:45:00,51.8,45.5,30.02,WNW,299,1.0,3.0,79,0.00,,,0.11,Wunderground v.1.15,2013-02-11 22:45:00,
2013-02-11 17:55:00,51.6,45.3,30.01,NNW,329,3.0,4.0,79,0.00,,,0.11,Wunderground v.1.15,2013-02-11 22:55:00,
2013-02-11 18:00:00,51.3,45.3,30.02,NW,319,3.0,3.0,80,0.00,,,0.11,Wunderground v.1.15,2013-02-11 23:00:00,
2013-02-11 18:10:00,50.8,45.2,30.01,NW,313,1.0,1.0,81,0.00,,,0.11,Wunderground v.1.15,2013-02-11 23:10:00,
2013-02-11 18:15:00,50.6,45.0,30.02,NW,320,1.0,2.0,81,0.00,,,0.11,Wunderground v.1.15,2013-02-11 23:15:00,
2013-02-11 18:20:00,50.3,44.7,30.02,NW,305,1.0,1.0,81,0.00,,,0.11,Wunderground v.1.15,2013-02-11 23:20:00,
2013-02-11 18:25:00,49.8,44.5,30.02,WNW,286,1.0,1.0,82,0.00,,,0.11,Wunderground v.1.15,2013-02-11 23:25:00,
2013-02-11 18:30:00,49.6,44.3,30.02,WNW,285,1.0,1.0,82,0.00,,,0.11,Wunderground v.1.15,2013-02-11 23:30:00,
2013-02-11 18:40:00,49.3,44.0,30.03,West,279,2.0,2.0,82,0.00,,,0.11,Wunderground v.1.15,2013-02-11 23:40:00,
2013-02-11 18:45:00,48.8,43.9,30.03,West,270,1.0,2.0,83,0.00,,,0.11,Wunderground v.1.15,2013-02-11 23:45:00,
2013-02-11 18:55:00,48.1,43.5,30.03,West,275,1.0,1.0,84,0.00,,,0.11,Wunderground v.1.15,2013-02-11 23:55:00,
2013-02-11 19:00:00,47.8,42.9,30.04,WNW,303,1.0,4.0,83,0.00,,,0.11,Wunderground v.1.15,2013-02-12 00:00:00,
2013-02-11 19:10:00,48.4,42.8,30.04,NW,306,2.0,2.0,81,0.00,,,0.11,Wunderground v.1.15,2013-02-12 00:10:00,
2013-02-11 19:15:00,48.3,42.7,30.04,NW,315,2.0,2.0,81,0.00,,,0.11,Wunderground v.1.15,2013-02-12 00:15:00,
2013-02-11 19:20:00,48.3,42.7,30.04,NW,314,2.0,2.0,81,0.00,,,0.11,Wunderground v.1.15,2013-02-12 00:20:00,
2013-02-11 19:25:00,48.4,42.8,30.04,NNW,345,2.0,2.0,81,0.00,,,0.11,Wunderground v.1.15,2013-02-12 00:25:00,
2013-02-11 19:35:00,47.9,42.7,30.05,NW,304,2.0,4.0,82,0.00,,,0.11,Wunderground v.1.15,2013-02-12 00:35:00,
2013-02-11 19:40:00,47.7,42.5,30.05,WNW,303,2.0,2.0,82,0.00,,,0.11,Wunderground v.1.15,2013-02-12 00:40:00,
2013-02-11 19:45:00,47.4,42.2,30.05,WNW,290,2.0,2.0,82,0.00,,,0.11,Wunderground v.1.15,2013-02-12 00:45:00,
2013-02-11 19:55:00,46.7,42.1,30.06,West,267,1.0,1.0,84,0.00,,,0.11,Wunderground v.1.15,2013-02-12 00:55:00,
2013-02-11 20:00:00,46.4,41.8,30.06,West,267,0.0,1.0,84,0.00,,,0.11,Wunderground v.1.15,2013-02-12 01:00:00,
2013-02-11 20:10:00,45.8,41.9,30.06,West,281,1.0,2.0,86,0.00,,,0.11,Wunderground v.1.15,2013-02-12 01:10:00,
2013-02-11 20:15:00,45.7,41.8,30.06,West,281,1.0,2.0,86,0.00,,,0.11,Wunderground v.1.15,2013-02-12 01:15:00,
2013-02-11 20:20:00,45.5,41.6,30.06,West,277,1.0,1.0,86,0.00,,,0.11,Wunderground v.1.15,2013-02-12 01:20:00,
2013-02-11 20:25:00,45.3,41.4,30.06,West,266,1.0,1.0,86,0.00,,,0.11,Wunderground v.1.15,2013-02-12 01:25:00,
2013-02-11 20:35:00,45.1,41.5,30.07,West,269,1.0,2.0,87,0.00,,,0.11,Wunderground v.1.15,2013-02-12 01:35:00,
2013-02-11 20:40:00,45.1,41.5,30.06,West,269,1.0,2.0,87,0.00,,,0.11,Wunderground v.1.15,2013-02-12 01:40:00,
2013-02-11 20:45:00,45.1,41.5,30.06,West,266,1.0,2.0,87,0.00,,,0.11,Wunderground v.1.15,2013-02-12 01:45:00,
2013-02-11 20:55:00,44.8,41.2,30.07,West,265,1.0,1.0,87,0.00,,,0.11,Wunderground v.1.15,2013-02-12 01:55:00,
2013-02-11 21:00:00,44.6,41.0,30.06,West,265,1.0,1.0,87,0.00,,,0.11,Wunderground v.1.15,2013-02-12 02:00:00,
2013-02-11 21:10:00,44.1,40.8,30.06,West,264,0.0,0.0,88,0.00,,,0.11,Wunderground v.1.15,2013-02-12 02:10:00,
2013-02-11 21:15:00,43.9,40.6,30.06,West,264,1.0,1.0,88,0.00,,,0.11,Wunderground v.1.15,2013-02-12 02:15:00,
2013-02-11 21:20:00,43.5,40.5,30.06,West,264,1.0,1.0,89,0.00,,,0.11,Wunderground v.1.15,2013-02-12 02:20:00,
2013-02-11 21:25:00,43.1,40.1,30.06,West,264,0.0,2.0,89,0.00,,,0.11,Wunderground v.1.15,2013-02-12 02:25:00,
2013-02-11 21:35:00,42.5,39.5,30.07,West,264,0.0,0.0,89,0.00,,,0.11,Wunderground v.1.15,2013-02-12 02:35:00,
2013-02-11 21:40:00,42.1,39.4,30.07,West,264,0.0,0.0,90,0.00,,,0.11,Wunderground v.1.15,2013-02-12 02:40:00,
2013-02-11 21:45:00,41.7,39.0,30.06,West,264,1.0,1.0,90,0.00,,,0.11,Wunderground v.1.15,2013-02-12 02:45:00,
2013-02-11 21:55:00,41.3,38.9,30.07,West,264,1.0,2.0,91,0.00,,,0.11,Wunderground v.1.15,2013-02-12 02:55:00,
2013-02-11 22:00:00,41.1,38.7,30.07,West,281,1.0,2.0,91,0.00,,,0.11,Wunderground v.1.15,2013-02-12 03:00:00,
2013-02-11 22:10:00,40.9,38.5,30.08,West,281,1.0,1.0,91,0.00,,,0.11,Wunderground v.1.15,2013-02-12 03:10:00,
2013-02-11 22:15:00,40.4,38.0,30.08,West,275,1.0,3.0,91,0.00,,,0.11,Wunderground v.1.15,2013-02-12 03:15:00,
2013-02-11 22:20:00,40.2,37.8,30.08,West,276,2.0,2.0,91,0.00,,,0.11,Wunderground v.1.15,2013-02-12 03:20:00,
2013-02-11 22:25:00,39.8,37.4,30.08,West,276,2.0,2.0,91,0.00,,,0.11,Wunderground v.1.15,2013-02-12 03:25:00,
2013-02-11 22:30:00,39.5,37.4,30.08,West,276,2.0,2.0,92,0.00,,,0.11,Wunderground v.1.15,2013-02-12 03:30:00,
2013-02-11 22:40:00,39.8,37.7,30.08,West,276,2.0,3.0,92,0.00,,,0.11,Wunderground v.1.15,2013-02-12 03:40:00,
2013-02-11 22:45:00,39.3,36.9,30.08,West,279,2.0,3.0,91,0.00,,,0.11,Wunderground v.1.15,2013-02-12 03:45:00,
2013-02-11 22:50:00,38.7,36.3,30.09,West,279,2.0,2.0,91,0.00,,,0.11,Wunderground v.1.15,2013-02-12 03:50:00,
2013-02-11 22:55:00,38.3,35.9,30.10,West,279,2.0,3.0,91,0.00,,,0.11,Wunderground v.1.15,2013-02-12 03:55:00,
2013-02-11 23:00:00,38.1,36.0,30.09,West,281,2.0,2.0,92,0.00,,,0.11,Wunderground v.1.15,2013-02-12 04:00:00,
2013-02-11 23:10:00,37.9,35.8,30.10,WNW,290,3.0,3.0,92,0.00,,,0.11,Wunderground v.1.15,2013-02-12 04:10:00,
2013-02-11 23:15:00,37.6,35.5,30.10,WNW,290,2.0,3.0,92,0.00,,,0.11,Wunderground v.1.15,2013-02-12 04:15:00,
2013-02-11 23:25:00,37.3,35.5,30.10,WNW,290,2.0,3.0,93,0.00,,,0.11,Wunderground v.1.15,2013-02-12 04:25:00,
2013-02-11 23:30:00,37.4,35.6,30.10,NW,311,3.0,3.0,93,0.00,,,0.11,Wunderground v.1.15,2013-02-12 04:30:00,
2013-02-11 23:35:00,39.3,35.8,30.10,NW,310,5.0,5.0,87,0.00,,,0.11,Wunderground v.1.15,2013-02-12 04:35:00,
2013-02-11 23:40:00,40.4,34.7,30.10,NW,315,5.0,5.0,80,0.00,,,0.11,Wunderground v.1.15,2013-02-12 04:40:00,
2013-02-11 23:45:00,41.4,33.7,30.10,NW,307,5.0,5.0,74,0.00,,,0.11,Wunderground v.1.15,2013-02-12 04:45:00,
2013-02-11 23:55:00,41.8,32.4,30.11,West,281,5.0,5.0,69,0.00,,,0.11,Wunderground v.1.15,2013-02-12 04:55:00,